sensor_id;sensor_type;location;lat;lon;timestamp;temperature;humidity
11387;DHT22;5748;53.102;8.456;2024-02-23T00:01:04;11.60;64.70
11387;DHT22;5748;53.102;8.456;2024-02-23T00:03:31;11.50;64.80
11387;DHT22;5748;53.102;8.456;2024-02-23T00:06:00;11.40;64.90
11387;DHT22;5748;53.102;8.456;2024-02-23T00:08:27;11.30;64.70
11387;DHT22;5748;53.102;8.456;2024-02-23T00:10:55;11.10;65.40
11387;DHT22;5748;53.102;8.456;2024-02-23T00:13:22;11.30;65.00
11387;DHT22;5748;53.102;8.456;2024-02-23T00:15:49;11.30;64.90
11387;DHT22;5748;53.102;8.456;2024-02-23T00:18:17;11.30;65.00
11387;DHT22;5748;53.102;8.456;2024-02-23T00:20:44;11.30;64.80
11387;DHT22;5748;53.102;8.456;2024-02-23T00:23:11;11.30;64.80
11387;DHT22;5748;53.102;8.456;2024-02-23T00:25:38;11.20;64.60
11387;DHT22;5748;53.102;8.456;2024-02-23T00:28:06;11.20;64.60
11387;DHT22;5748;53.102;8.456;2024-02-23T00:30:34;11.20;64.50
11387;DHT22;5748;53.102;8.456;2024-02-23T00:33:01;11.20;64.70
11387;DHT22;5748;53.102;8.456;2024-02-23T00:35:28;11.10;64.50
11387;DHT22;5748;53.102;8.456;2024-02-23T00:37:55;11.10;64.50
11387;DHT22;5748;53.102;8.456;2024-02-23T00:40:22;11.40;64.90
11387;DHT22;5748;53.102;8.456;2024-02-23T00:42:50;11.00;64.50
11387;DHT22;5748;53.102;8.456;2024-02-23T00:45:18;11.00;64.40
11387;DHT22;5748;53.102;8.456;2024-02-23T00:47:45;11.00;64.50
11387;DHT22;5748;53.102;8.456;2024-02-23T00:50:13;10.90;64.50
11387;DHT22;5748;53.102;8.456;2024-02-23T00:52:40;10.90;64.70
11387;DHT22;5748;53.102;8.456;2024-02-23T00:55:08;10.80;64.60
11387;DHT22;5748;53.102;8.456;2024-02-23T00:57:35;10.80;64.70
11387;DHT22;5748;53.102;8.456;2024-02-23T01:00:02;10.70;64.70
11387;DHT22;5748;53.102;8.456;2024-02-23T01:02:32;10.70;65.00
11387;DHT22;5748;53.102;8.456;2024-02-23T01:04:59;11.00;65.50
11387;DHT22;5748;53.102;8.456;2024-02-23T01:07:26;10.60;64.90
11387;DHT22;5748;53.102;8.456;2024-02-23T01:09:53;10.40;64.90
11387;DHT22;5748;53.102;8.456;2024-02-23T01:12:20;10.40;65.10
11387;DHT22;5748;53.102;8.456;2024-02-23T01:14:47;10.30;65.20
11387;DHT22;5748;53.102;8.456;2024-02-23T01:17:14;10.20;65.30
11387;DHT22;5748;53.102;8.456;2024-02-23T01:19:43;10.10;65.50
11387;DHT22;5748;53.102;8.456;2024-02-23T01:22:11;10.10;65.60
11387;DHT22;5748;53.102;8.456;2024-02-23T01:24:38;10.00;65.60
11387;DHT22;5748;53.102;8.456;2024-02-23T01:27:05;10.00;66.40
11387;DHT22;5748;53.102;8.456;2024-02-23T01:29:32;9.90;66.80
11387;DHT22;5748;53.102;8.456;2024-02-23T01:31:59;9.80;66.80
11387;DHT22;5748;53.102;8.456;2024-02-23T01:34:26;9.80;67.20
11387;DHT22;5748;53.102;8.456;2024-02-23T01:36:55;9.70;67.20
11387;DHT22;5748;53.102;8.456;2024-02-23T01:39:22;9.60;67.30
11387;DHT22;5748;53.102;8.456;2024-02-23T01:41:49;9.60;67.50
11387;DHT22;5748;53.102;8.456;2024-02-23T01:44:16;9.50;67.50
11387;DHT22;5748;53.102;8.456;2024-02-23T01:46:46;9.50;67.50
11387;DHT22;5748;53.102;8.456;2024-02-23T01:49:13;9.50;67.60
11387;DHT22;5748;53.102;8.456;2024-02-23T01:51:40;9.50;67.80
11387;DHT22;5748;53.102;8.456;2024-02-23T01:54:09;9.50;67.80
11387;DHT22;5748;53.102;8.456;2024-02-23T01:56:37;9.40;68.00
11387;DHT22;5748;53.102;8.456;2024-02-23T01:59:06;9.40;67.90
11387;DHT22;5748;53.102;8.456;2024-02-23T02:01:33;9.40;67.90
11387;DHT22;5748;53.102;8.456;2024-02-23T02:04:00;9.40;67.90
11387;DHT22;5748;53.102;8.456;2024-02-23T02:06:27;9.40;68.00
11387;DHT22;5748;53.102;8.456;2024-02-23T02:08:54;9.40;67.90
11387;DHT22;5748;53.102;8.456;2024-02-23T02:11:23;9.30;67.90
11387;DHT22;5748;53.102;8.456;2024-02-23T02:13:49;9.30;67.70
11387;DHT22;5748;53.102;8.456;2024-02-23T02:16:16;9.20;67.80
11387;DHT22;5748;53.102;8.456;2024-02-23T02:18:43;9.20;68.00
11387;DHT22;5748;53.102;8.456;2024-02-23T02:21:11;9.10;67.80
11387;DHT22;5748;53.102;8.456;2024-02-23T02:23:38;9.10;67.90
11387;DHT22;5748;53.102;8.456;2024-02-23T02:26:05;9.00;67.90
11387;DHT22;5748;53.102;8.456;2024-02-23T02:28:34;9.00;68.80
11387;DHT22;5748;53.102;8.456;2024-02-23T02:31:01;8.90;68.00
11387;DHT22;5748;53.102;8.456;2024-02-23T02:33:28;8.90;67.90
11387;DHT22;5748;53.102;8.456;2024-02-23T02:35:55;8.80;68.00
11387;DHT22;5748;53.102;8.456;2024-02-23T02:38:22;8.80;68.00
11387;DHT22;5748;53.102;8.456;2024-02-23T02:40:49;8.80;68.00
11387;DHT22;5748;53.102;8.456;2024-02-23T02:43:16;8.70;68.00
11387;DHT22;5748;53.102;8.456;2024-02-23T02:45:45;8.70;68.10
11387;DHT22;5748;53.102;8.456;2024-02-23T02:48:12;8.70;68.20
11387;DHT22;5748;53.102;8.456;2024-02-23T02:50:39;8.70;68.50
11387;DHT22;5748;53.102;8.456;2024-02-23T02:53:27;8.60;68.30
11387;DHT22;5748;53.102;8.456;2024-02-23T02:55:54;8.60;68.80
11387;DHT22;5748;53.102;8.456;2024-02-23T02:58:21;8.60;68.50
11387;DHT22;5748;53.102;8.456;2024-02-23T03:00:49;8.60;68.40
11387;DHT22;5748;53.102;8.456;2024-02-23T03:03:16;8.60;68.40
11387;DHT22;5748;53.102;8.456;2024-02-23T03:05:43;8.60;68.30
11387;DHT22;5748;53.102;8.456;2024-02-23T03:08:10;8.60;68.20
11387;DHT22;5748;53.102;8.456;2024-02-23T03:10:37;8.70;68.30
11387;DHT22;5748;53.102;8.456;2024-02-23T03:13:04;8.70;68.20
11387;DHT22;5748;53.102;8.456;2024-02-23T03:15:32;8.70;68.10
11387;DHT22;5748;53.102;8.456;2024-02-23T03:18:00;8.70;68.20
11387;DHT22;5748;53.102;8.456;2024-02-23T03:20:27;8.70;68.10
11387;DHT22;5748;53.102;8.456;2024-02-23T03:22:54;8.70;67.90
11387;DHT22;5748;53.102;8.456;2024-02-23T03:25:21;8.70;68.10
11387;DHT22;5748;53.102;8.456;2024-02-23T03:27:49;8.80;68.20
11387;DHT22;5748;53.102;8.456;2024-02-23T03:30:16;8.80;68.50
11387;DHT22;5748;53.102;8.456;2024-02-23T03:32:43;8.80;68.60
11387;DHT22;5748;53.102;8.456;2024-02-23T03:35:11;8.80;68.60
11387;DHT22;5748;53.102;8.456;2024-02-23T03:37:38;8.80;68.70
11387;DHT22;5748;53.102;8.456;2024-02-23T03:40:06;8.80;68.70
11387;DHT22;5748;53.102;8.456;2024-02-23T03:42:35;8.80;68.70
11387;DHT22;5748;53.102;8.456;2024-02-23T03:45:04;8.90;68.70
11387;DHT22;5748;53.102;8.456;2024-02-23T03:47:31;8.90;68.90
11387;DHT22;5748;53.102;8.456;2024-02-23T03:49:58;8.90;68.80
11387;DHT22;5748;53.102;8.456;2024-02-23T03:52:27;8.90;68.80
11387;DHT22;5748;53.102;8.456;2024-02-23T03:54:54;8.90;68.90
11387;DHT22;5748;53.102;8.456;2024-02-23T03:57:20;9.10;68.90
11387;DHT22;5748;53.102;8.456;2024-02-23T03:59:53;9.00;68.90
11387;DHT22;5748;53.102;8.456;2024-02-23T04:02:21;8.90;68.80
11387;DHT22;5748;53.102;8.456;2024-02-23T04:04:48;9.00;68.80
11387;DHT22;5748;53.102;8.456;2024-02-23T04:07:15;9.00;68.70
11387;DHT22;5748;53.102;8.456;2024-02-23T04:09:44;9.00;68.60
11387;DHT22;5748;53.102;8.456;2024-02-23T04:12:11;9.00;68.60
11387;DHT22;5748;53.102;8.456;2024-02-23T04:14:38;9.00;68.50
11387;DHT22;5748;53.102;8.456;2024-02-23T04:17:06;9.10;68.20
11387;DHT22;5748;53.102;8.456;2024-02-23T04:19:33;9.00;68.40
11387;DHT22;5748;53.102;8.456;2024-02-23T04:22:00;9.10;68.40
11387;DHT22;5748;53.102;8.456;2024-02-23T04:24:27;9.00;68.10
11387;DHT22;5748;53.102;8.456;2024-02-23T04:26:55;9.00;67.10
11387;DHT22;5748;53.102;8.456;2024-02-23T04:29:22;9.00;67.60
11387;DHT22;5748;53.102;8.456;2024-02-23T04:31:49;9.10;67.70
11387;DHT22;5748;53.102;8.456;2024-02-23T04:34:16;9.00;67.50
11387;DHT22;5748;53.102;8.456;2024-02-23T04:36:43;8.90;67.40
11387;DHT22;5748;53.102;8.456;2024-02-23T04:39:10;8.90;67.50
11387;DHT22;5748;53.102;8.456;2024-02-23T04:41:37;8.90;67.60
11387;DHT22;5748;53.102;8.456;2024-02-23T04:44:06;8.90;67.60
11387;DHT22;5748;53.102;8.456;2024-02-23T04:46:33;8.90;67.60
11387;DHT22;5748;53.102;8.456;2024-02-23T04:49:00;8.90;67.60
11387;DHT22;5748;53.102;8.456;2024-02-23T04:51:27;8.80;67.50
11387;DHT22;5748;53.102;8.456;2024-02-23T04:53:54;8.80;67.50
11387;DHT22;5748;53.102;8.456;2024-02-23T04:56:21;8.80;67.40
11387;DHT22;5748;53.102;8.456;2024-02-23T04:58:48;8.80;67.20
11387;DHT22;5748;53.102;8.456;2024-02-23T05:01:16;8.70;67.20
11387;DHT22;5748;53.102;8.456;2024-02-23T05:03:43;8.70;67.30
11387;DHT22;5748;53.102;8.456;2024-02-23T05:06:10;8.70;67.20
11387;DHT22;5748;53.102;8.456;2024-02-23T05:08:38;8.70;67.20
11387;DHT22;5748;53.102;8.456;2024-02-23T05:11:05;8.70;67.10
11387;DHT22;5748;53.102;8.456;2024-02-23T05:13:32;8.60;67.00
11387;DHT22;5748;53.102;8.456;2024-02-23T05:15:59;8.60;67.10
11387;DHT22;5748;53.102;8.456;2024-02-23T05:18:27;8.60;67.10
11387;DHT22;5748;53.102;8.456;2024-02-23T05:20:54;8.60;67.00
11387;DHT22;5748;53.102;8.456;2024-02-23T05:23:21;8.60;67.00
11387;DHT22;5748;53.102;8.456;2024-02-23T05:25:48;8.50;66.90
11387;DHT22;5748;53.102;8.456;2024-02-23T05:28:15;8.50;66.90
11387;DHT22;5748;53.102;8.456;2024-02-23T05:30:42;8.50;66.90
11387;DHT22;5748;53.102;8.456;2024-02-23T05:33:09;8.40;66.90
11387;DHT22;5748;53.102;8.456;2024-02-23T05:35:38;8.40;67.00
11387;DHT22;5748;53.102;8.456;2024-02-23T05:38:05;8.30;67.00
11387;DHT22;5748;53.102;8.456;2024-02-23T05:40:32;8.30;67.00
11387;DHT22;5748;53.102;8.456;2024-02-23T05:42:59;8.30;67.20
11387;DHT22;5748;53.102;8.456;2024-02-23T05:45:26;8.30;67.40
11387;DHT22;5748;53.102;8.456;2024-02-23T05:47:53;8.30;67.60
11387;DHT22;5748;53.102;8.456;2024-02-23T05:50:20;8.30;67.80
11387;DHT22;5748;53.102;8.456;2024-02-23T05:52:48;8.40;68.00
11387;DHT22;5748;53.102;8.456;2024-02-23T05:55:15;8.30;68.00
11387;DHT22;5748;53.102;8.456;2024-02-23T05:57:43;8.40;68.20
11387;DHT22;5748;53.102;8.456;2024-02-23T06:00:11;8.50;69.10
11387;DHT22;5748;53.102;8.456;2024-02-23T06:02:40;8.50;68.50
11387;DHT22;5748;53.102;8.456;2024-02-23T06:05:07;8.50;68.40
11387;DHT22;5748;53.102;8.456;2024-02-23T06:07:34;8.50;68.50
11387;DHT22;5748;53.102;8.456;2024-02-23T06:10:04;8.50;68.40
11387;DHT22;5748;53.102;8.456;2024-02-23T06:12:31;8.60;68.40
11387;DHT22;5748;53.102;8.456;2024-02-23T06:14:58;8.50;68.30
11387;DHT22;5748;53.102;8.456;2024-02-23T06:17:25;6.50;66.00
11387;DHT22;5748;53.102;8.456;2024-02-23T06:19:52;8.50;68.30
11387;DHT22;5748;53.102;8.456;2024-02-23T06:22:22;8.50;68.30
11387;DHT22;5748;53.102;8.456;2024-02-23T06:24:51;8.50;68.30
11387;DHT22;5748;53.102;8.456;2024-02-23T06:27:19;8.40;68.40
11387;DHT22;5748;53.102;8.456;2024-02-23T06:29:47;8.40;68.30
11387;DHT22;5748;53.102;8.456;2024-02-23T06:32:15;8.30;68.60
11387;DHT22;5748;53.102;8.456;2024-02-23T06:34:42;8.40;68.60
11387;DHT22;5748;53.102;8.456;2024-02-23T06:37:09;8.30;68.70
11387;DHT22;5748;53.102;8.456;2024-02-23T06:39:36;8.30;68.70
11387;DHT22;5748;53.102;8.456;2024-02-23T06:42:04;8.30;68.60
11387;DHT22;5748;53.102;8.456;2024-02-23T06:44:32;8.30;68.80
11387;DHT22;5748;53.102;8.456;2024-02-23T06:46:59;8.20;68.60
11387;DHT22;5748;53.102;8.456;2024-02-23T06:49:26;8.30;68.70
11387;DHT22;5748;53.102;8.456;2024-02-23T06:51:53;8.30;68.60
11387;DHT22;5748;53.102;8.456;2024-02-23T06:54:20;8.30;68.60
11387;DHT22;5748;53.102;8.456;2024-02-23T06:56:47;8.30;68.60
11387;DHT22;5748;53.102;8.456;2024-02-23T06:59:14;8.30;68.60
11387;DHT22;5748;53.102;8.456;2024-02-23T07:01:49;8.30;68.70
11387;DHT22;5748;53.102;8.456;2024-02-23T07:04:16;8.30;68.70
11387;DHT22;5748;53.102;8.456;2024-02-23T07:06:44;8.40;68.70
11387;DHT22;5748;53.102;8.456;2024-02-23T07:09:11;8.30;68.50
11387;DHT22;5748;53.102;8.456;2024-02-23T07:11:38;8.40;68.50
11387;DHT22;5748;53.102;8.456;2024-02-23T07:14:07;8.40;68.40
11387;DHT22;5748;53.102;8.456;2024-02-23T07:16:37;8.40;68.20
11387;DHT22;5748;53.102;8.456;2024-02-23T07:19:06;8.40;68.10
11387;DHT22;5748;53.102;8.456;2024-02-23T07:21:34;8.40;68.10
11387;DHT22;5748;53.102;8.456;2024-02-23T07:24:01;8.50;68.20
11387;DHT22;5748;53.102;8.456;2024-02-23T07:26:28;8.50;68.10
11387;DHT22;5748;53.102;8.456;2024-02-23T07:28:55;8.50;68.30
11387;DHT22;5748;53.102;8.456;2024-02-23T07:31:22;8.50;68.40
11387;DHT22;5748;53.102;8.456;2024-02-23T07:33:49;8.60;68.30
11387;DHT22;5748;53.102;8.456;2024-02-23T07:36:18;8.60;68.10
11387;DHT22;5748;53.102;8.456;2024-02-23T07:38:45;8.60;68.10
11387;DHT22;5748;53.102;8.456;2024-02-23T07:41:12;8.70;68.20
11387;DHT22;5748;53.102;8.456;2024-02-23T07:43:39;8.70;68.20
11387;DHT22;5748;53.102;8.456;2024-02-23T07:46:06;8.80;68.20
11387;DHT22;5748;53.102;8.456;2024-02-23T07:48:34;8.80;68.20
11387;DHT22;5748;53.102;8.456;2024-02-23T07:51:02;8.80;68.00
11387;DHT22;5748;53.102;8.456;2024-02-23T07:53:31;8.80;68.00
11387;DHT22;5748;53.102;8.456;2024-02-23T07:55:59;8.90;68.00
11387;DHT22;5748;53.102;8.456;2024-02-23T07:58:27;9.00;68.10
11387;DHT22;5748;53.102;8.456;2024-02-23T08:00:55;9.00;68.20
11387;DHT22;5748;53.102;8.456;2024-02-23T08:03:22;9.00;68.20
11387;DHT22;5748;53.102;8.456;2024-02-23T08:05:49;9.10;68.30
11387;DHT22;5748;53.102;8.456;2024-02-23T08:08:16;9.10;68.90
11387;DHT22;5748;53.102;8.456;2024-02-23T08:10:44;9.30;69.60
11387;DHT22;5748;53.102;8.456;2024-02-23T08:13:11;9.40;70.10
11387;DHT22;5748;53.102;8.456;2024-02-23T08:15:38;9.60;71.00
11387;DHT22;5748;53.102;8.456;2024-02-23T08:18:06;9.90;71.70
11387;DHT22;5748;53.102;8.456;2024-02-23T08:20:33;10.20;70.80
11387;DHT22;5748;53.102;8.456;2024-02-23T08:23:00;10.50;71.30
11387;DHT22;5748;53.102;8.456;2024-02-23T08:25:27;10.90;71.20
11387;DHT22;5748;53.102;8.456;2024-02-23T08:27:56;11.10;70.20
11387;DHT22;5748;53.102;8.456;2024-02-23T08:30:24;11.40;70.90
11387;DHT22;5748;53.102;8.456;2024-02-23T08:32:51;11.80;70.80
11387;DHT22;5748;53.102;8.456;2024-02-23T08:35:18;12.10;70.50
11387;DHT22;5748;53.102;8.456;2024-02-23T08:37:45;12.30;70.40
11387;DHT22;5748;53.102;8.456;2024-02-23T08:40:12;12.70;70.40
11387;DHT22;5748;53.102;8.456;2024-02-23T08:42:39;12.90;69.80
11387;DHT22;5748;53.102;8.456;2024-02-23T08:45:08;13.40;70.20
11387;DHT22;5748;53.102;8.456;2024-02-23T08:47:37;13.40;67.80
11387;DHT22;5748;53.102;8.456;2024-02-23T08:50:06;13.60;67.80
11387;DHT22;5748;53.102;8.456;2024-02-23T08:52:33;13.70;66.90
11387;DHT22;5748;53.102;8.456;2024-02-23T08:55:00;13.70;65.10
11387;DHT22;5748;53.102;8.456;2024-02-23T08:57:27;13.80;63.60
11387;DHT22;5748;53.102;8.456;2024-02-23T08:59:54;13.70;62.40
11387;DHT22;5748;53.102;8.456;2024-02-23T09:02:24;13.70;63.80
11387;DHT22;5748;53.102;8.456;2024-02-23T09:04:51;13.60;63.90
11387;DHT22;5748;53.102;8.456;2024-02-23T09:07:18;13.50;64.80
11387;DHT22;5748;53.102;8.456;2024-02-23T09:09:46;13.60;64.50
11387;DHT22;5748;53.102;8.456;2024-02-23T09:12:14;13.50;63.40
11387;DHT22;5748;53.102;8.456;2024-02-23T09:14:41;13.60;64.00
11387;DHT22;5748;53.102;8.456;2024-02-23T09:17:09;13.50;64.00
11387;DHT22;5748;53.102;8.456;2024-02-23T09:19:38;13.50;63.50
11387;DHT22;5748;53.102;8.456;2024-02-23T09:22:05;13.50;62.50
11387;DHT22;5748;53.102;8.456;2024-02-23T09:24:32;13.30;62.40
11387;DHT22;5748;53.102;8.456;2024-02-23T09:27:00;13.20;62.00
11387;DHT22;5748;53.102;8.456;2024-02-23T09:29:27;13.10;62.00
11387;DHT22;5748;53.102;8.456;2024-02-23T09:31:54;12.90;61.90
11387;DHT22;5748;53.102;8.456;2024-02-23T09:34:21;12.90;62.00
11387;DHT22;5748;53.102;8.456;2024-02-23T09:36:50;12.70;62.30
11387;DHT22;5748;53.102;8.456;2024-02-23T09:39:17;12.60;62.00
11387;DHT22;5748;53.102;8.456;2024-02-23T09:41:44;12.60;61.50
11387;DHT22;5748;53.102;8.456;2024-02-23T09:44:12;12.40;61.20
11387;DHT22;5748;53.102;8.456;2024-02-23T09:46:40;12.30;60.60
11387;DHT22;5748;53.102;8.456;2024-02-23T09:49:11;12.30;61.50
11387;DHT22;5748;53.102;8.456;2024-02-23T09:51:39;12.20;61.80
11387;DHT22;5748;53.102;8.456;2024-02-23T09:54:08;12.10;62.00
11387;DHT22;5748;53.102;8.456;2024-02-23T09:56:36;12.10;61.90
11387;DHT22;5748;53.102;8.456;2024-02-23T09:59:03;12.10;62.10
11387;DHT22;5748;53.102;8.456;2024-02-23T10:01:32;12.10;62.00
11387;DHT22;5748;53.102;8.456;2024-02-23T10:04:01;12.10;62.10
11387;DHT22;5748;53.102;8.456;2024-02-23T10:06:30;12.20;62.00
11387;DHT22;5748;53.102;8.456;2024-02-23T10:08:57;12.10;62.50
11387;DHT22;5748;53.102;8.456;2024-02-23T10:11:25;12.10;62.30
11387;DHT22;5748;53.102;8.456;2024-02-23T10:13:52;12.10;61.90
11387;DHT22;5748;53.102;8.456;2024-02-23T10:16:19;12.10;62.00
11387;DHT22;5748;53.102;8.456;2024-02-23T10:18:47;12.40;62.70
11387;DHT22;5748;53.102;8.456;2024-02-23T10:21:15;12.10;62.30
11387;DHT22;5748;53.102;8.456;2024-02-23T10:23:42;12.10;61.70
11387;DHT22;5748;53.102;8.456;2024-02-23T10:26:10;12.10;62.40
11387;DHT22;5748;53.102;8.456;2024-02-23T10:28:39;12.10;62.30
11387;DHT22;5748;53.102;8.456;2024-02-23T10:31:06;12.20;62.70
11387;DHT22;5748;53.102;8.456;2024-02-23T10:33:34;12.20;62.40
11387;DHT22;5748;53.102;8.456;2024-02-23T10:36:05;12.30;62.50
11387;DHT22;5748;53.102;8.456;2024-02-23T10:38:35;12.30;62.60
11387;DHT22;5748;53.102;8.456;2024-02-23T10:41:05;12.30;62.00
11387;DHT22;5748;53.102;8.456;2024-02-23T10:43:41;12.20;61.70
11387;DHT22;5748;53.102;8.456;2024-02-23T10:46:11;12.30;61.30
11387;DHT22;5748;53.102;8.456;2024-02-23T10:48:39;12.30;61.50
11387;DHT22;5748;53.102;8.456;2024-02-23T10:51:07;12.30;61.30
11387;DHT22;5748;53.102;8.456;2024-02-23T10:53:36;12.30;61.30
11387;DHT22;5748;53.102;8.456;2024-02-23T10:56:04;12.30;60.80
11387;DHT22;5748;53.102;8.456;2024-02-23T10:58:32;12.30;60.10
11387;DHT22;5748;53.102;8.456;2024-02-23T11:01:01;12.30;61.30
11387;DHT22;5748;53.102;8.456;2024-02-23T11:03:30;12.30;60.10
11387;DHT22;5748;53.102;8.456;2024-02-23T11:05:59;12.40;60.60
11387;DHT22;5748;53.102;8.456;2024-02-23T11:08:28;12.40;61.10
11387;DHT22;5748;53.102;8.456;2024-02-23T11:10:55;12.50;61.30
11387;DHT22;5748;53.102;8.456;2024-02-23T11:13:30;12.50;61.60
11387;DHT22;5748;53.102;8.456;2024-02-23T11:16:03;12.60;61.40
11387;DHT22;5748;53.102;8.456;2024-02-23T11:18:31;12.70;62.30
11387;DHT22;5748;53.102;8.456;2024-02-23T11:20:59;13.50;63.50
11387;DHT22;5748;53.102;8.456;2024-02-23T11:23:39;13.10;63.10
11387;DHT22;5748;53.102;8.456;2024-02-23T11:26:09;13.40;62.20
11387;DHT22;5748;53.102;8.456;2024-02-23T11:28:47;13.70;63.70
11387;DHT22;5748;53.102;8.456;2024-02-23T11:31:20;13.90;62.40
11387;DHT22;5748;53.102;8.456;2024-02-23T11:33:51;14.20;63.70
11387;DHT22;5748;53.102;8.456;2024-02-23T11:36:23;14.50;63.10
11387;DHT22;5748;53.102;8.456;2024-02-23T11:38:52;14.70;62.70
11387;DHT22;5748;53.102;8.456;2024-02-23T11:41:21;13.80;59.80
11387;DHT22;5748;53.102;8.456;2024-02-23T11:43:49;14.80;59.80
11387;DHT22;5748;53.102;8.456;2024-02-23T11:46:18;14.80;59.30
11387;DHT22;5748;53.102;8.456;2024-02-23T11:48:46;14.80;58.20
11387;DHT22;5748;53.102;8.456;2024-02-23T11:51:18;14.70;58.40
11387;DHT22;5748;53.102;8.456;2024-02-23T11:53:46;14.60;59.50
11387;DHT22;5748;53.102;8.456;2024-02-23T11:56:13;14.60;59.70
11387;DHT22;5748;53.102;8.456;2024-02-23T11:58:41;14.60;59.70
11387;DHT22;5748;53.102;8.456;2024-02-23T12:01:09;14.40;60.30
11387;DHT22;5748;53.102;8.456;2024-02-23T12:03:37;14.30;58.30
11387;DHT22;5748;53.102;8.456;2024-02-23T12:06:05;14.10;58.30
11387;DHT22;5748;53.102;8.456;2024-02-23T12:08:33;14.00;57.90
11387;DHT22;5748;53.102;8.456;2024-02-23T12:11:04;13.90;58.20
11387;DHT22;5748;53.102;8.456;2024-02-23T12:13:34;13.70;57.80
11387;DHT22;5748;53.102;8.456;2024-02-23T12:16:01;13.60;58.30
11387;DHT22;5748;53.102;8.456;2024-02-23T12:18:29;13.40;58.20
11387;DHT22;5748;53.102;8.456;2024-02-23T12:21:00;13.20;58.00
11387;DHT22;5748;53.102;8.456;2024-02-23T12:23:38;13.10;58.00
11387;DHT22;5748;53.102;8.456;2024-02-23T12:26:06;13.00;58.10
11387;DHT22;5748;53.102;8.456;2024-02-23T12:28:33;12.90;58.80
11387;DHT22;5748;53.102;8.456;2024-02-23T12:31:00;12.80;59.20
11387;DHT22;5748;53.102;8.456;2024-02-23T12:33:28;12.70;58.70
11387;DHT22;5748;53.102;8.456;2024-02-23T12:35:56;12.60;58.80
11387;DHT22;5748;53.102;8.456;2024-02-23T12:38:24;12.60;59.00
11387;DHT22;5748;53.102;8.456;2024-02-23T12:40:52;12.50;59.10
11387;DHT22;5748;53.102;8.456;2024-02-23T12:43:19;12.50;59.10
11387;DHT22;5748;53.102;8.456;2024-02-23T12:45:47;12.50;58.90
11387;DHT22;5748;53.102;8.456;2024-02-23T12:48:16;12.50;59.50
11387;DHT22;5748;53.102;8.456;2024-02-23T12:50:43;12.50;59.70
11387;DHT22;5748;53.102;8.456;2024-02-23T12:53:18;12.60;59.60
11387;DHT22;5748;53.102;8.456;2024-02-23T12:55:59;12.70;60.20
11387;DHT22;5748;53.102;8.456;2024-02-23T12:58:27;12.90;60.60
11387;DHT22;5748;53.102;8.456;2024-02-23T13:00:55;13.10;60.80
11387;DHT22;5748;53.102;8.456;2024-02-23T13:03:22;13.30;61.20
11387;DHT22;5748;53.102;8.456;2024-02-23T13:05:50;13.40;61.10
11387;DHT22;5748;53.102;8.456;2024-02-23T13:08:17;13.70;60.80
11387;DHT22;5748;53.102;8.456;2024-02-23T13:10:46;13.90;59.80
11387;DHT22;5748;53.102;8.456;2024-02-23T13:13:13;14.10;59.80
11387;DHT22;5748;53.102;8.456;2024-02-23T13:15:41;14.10;58.50
11387;DHT22;5748;53.102;8.456;2024-02-23T13:18:08;14.10;59.20
11387;DHT22;5748;53.102;8.456;2024-02-23T13:20:35;14.10;59.10
11387;DHT22;5748;53.102;8.456;2024-02-23T13:23:02;14.10;58.90
11387;DHT22;5748;53.102;8.456;2024-02-23T13:25:29;14.00;58.80
11387;DHT22;5748;53.102;8.456;2024-02-23T13:27:58;14.00;59.20
11387;DHT22;5748;53.102;8.456;2024-02-23T13:30:25;14.00;58.60
11387;DHT22;5748;53.102;8.456;2024-02-23T13:32:53;14.00;58.60
11387;DHT22;5748;53.102;8.456;2024-02-23T13:35:20;14.00;58.00
11387;DHT22;5748;53.102;8.456;2024-02-23T13:37:47;13.90;58.20
11387;DHT22;5748;53.102;8.456;2024-02-23T13:40:15;13.90;57.30
11387;DHT22;5748;53.102;8.456;2024-02-23T13:42:42;13.80;57.60
11387;DHT22;5748;53.102;8.456;2024-02-23T13:45:12;13.70;57.40
11387;DHT22;5748;53.102;8.456;2024-02-23T13:47:40;13.60;57.90
11387;DHT22;5748;53.102;8.456;2024-02-23T13:50:09;13.50;58.00
11387;DHT22;5748;53.102;8.456;2024-02-23T13:52:36;13.50;58.80
11387;DHT22;5748;53.102;8.456;2024-02-23T13:55:03;13.50;58.90
11387;DHT22;5748;53.102;8.456;2024-02-23T13:57:31;13.40;58.60
11387;DHT22;5748;53.102;8.456;2024-02-23T13:59:58;13.40;58.40
11387;DHT22;5748;53.102;8.456;2024-02-23T14:02:26;13.40;58.30
11387;DHT22;5748;53.102;8.456;2024-02-23T14:04:59;13.30;57.90
11387;DHT22;5748;53.102;8.456;2024-02-23T14:07:28;13.20;57.80
11387;DHT22;5748;53.102;8.456;2024-02-23T14:09:55;13.10;58.30
11387;DHT22;5748;53.102;8.456;2024-02-23T14:12:22;13.10;58.30
11387;DHT22;5748;53.102;8.456;2024-02-23T14:14:49;13.00;58.40
11387;DHT22;5748;53.102;8.456;2024-02-23T14:17:16;12.90;58.60
11387;DHT22;5748;53.102;8.456;2024-02-23T14:19:45;12.90;58.60
11387;DHT22;5748;53.102;8.456;2024-02-23T14:22:12;12.90;58.90
11387;DHT22;5748;53.102;8.456;2024-02-23T14:24:39;12.80;59.10
11387;DHT22;5748;53.102;8.456;2024-02-23T14:27:06;12.80;59.20
11387;DHT22;5748;53.102;8.456;2024-02-23T14:29:33;12.80;58.70
11387;DHT22;5748;53.102;8.456;2024-02-23T14:32:00;12.70;59.00
11387;DHT22;5748;53.102;8.456;2024-02-23T14:34:27;12.80;59.50
11387;DHT22;5748;53.102;8.456;2024-02-23T14:36:57;12.70;59.30
11387;DHT22;5748;53.102;8.456;2024-02-23T14:39:24;12.70;59.40
11387;DHT22;5748;53.102;8.456;2024-02-23T14:41:51;12.80;59.30
11387;DHT22;5748;53.102;8.456;2024-02-23T14:44:18;12.70;59.30
11387;DHT22;5748;53.102;8.456;2024-02-23T14:46:45;12.70;59.50
11387;DHT22;5748;53.102;8.456;2024-02-23T14:49:12;12.70;58.90
11387;DHT22;5748;53.102;8.456;2024-02-23T14:51:39;12.60;59.00
11387;DHT22;5748;53.102;8.456;2024-02-23T14:54:09;12.60;59.10
11387;DHT22;5748;53.102;8.456;2024-02-23T14:56:36;12.60;59.20
11387;DHT22;5748;53.102;8.456;2024-02-23T14:59:04;12.50;59.40
11387;DHT22;5748;53.102;8.456;2024-02-23T15:01:34;12.50;59.60
11387;DHT22;5748;53.102;8.456;2024-02-23T15:04:02;12.60;59.90
11387;DHT22;5748;53.102;8.456;2024-02-23T15:06:29;12.50;59.70
11387;DHT22;5748;53.102;8.456;2024-02-23T15:08:56;12.50;59.80
11387;DHT22;5748;53.102;8.456;2024-02-23T15:11:25;12.50;59.50
11387;DHT22;5748;53.102;8.456;2024-02-23T15:13:52;12.60;59.60
11387;DHT22;5748;53.102;8.456;2024-02-23T15:16:23;12.50;59.90
11387;DHT22;5748;53.102;8.456;2024-02-23T15:18:50;12.50;59.30
11387;DHT22;5748;53.102;8.456;2024-02-23T15:21:17;12.80;59.50
11387;DHT22;5748;53.102;8.456;2024-02-23T15:23:45;12.40;59.30
11387;DHT22;5748;53.102;8.456;2024-02-23T15:26:12;12.30;59.20
11387;DHT22;5748;53.102;8.456;2024-02-23T15:28:40;12.40;59.30
11387;DHT22;5748;53.102;8.456;2024-02-23T15:31:08;12.30;59.50
11387;DHT22;5748;53.102;8.456;2024-02-23T15:33:35;12.40;59.60
11387;DHT22;5748;53.102;8.456;2024-02-23T15:36:05;12.40;59.70
11387;DHT22;5748;53.102;8.456;2024-02-23T15:38:34;12.40;59.70
11387;DHT22;5748;53.102;8.456;2024-02-23T15:41:01;12.40;59.70
11387;DHT22;5748;53.102;8.456;2024-02-23T15:43:29;12.30;59.70
11387;DHT22;5748;53.102;8.456;2024-02-23T15:45:57;12.30;59.80
11387;DHT22;5748;53.102;8.456;2024-02-23T15:48:25;12.30;59.90
11387;DHT22;5748;53.102;8.456;2024-02-23T15:50:52;12.20;59.90
11387;DHT22;5748;53.102;8.456;2024-02-23T15:53:20;12.20;60.00
11387;DHT22;5748;53.102;8.456;2024-02-23T15:55:47;12.20;60.00